createdAt,value
2018-01-07T00:00:28.837Z,95922.75
2018-01-07T00:02:57.304Z,95932.33
2018-01-07T00:05:25.044Z,95939.14
2018-01-07T00:07:52.849Z,95942.19
2018-01-07T00:10:20.519Z,95936.59
2018-01-07T00:18:58.041Z,95936.06
2018-01-07T00:21:25.692Z,95934.42
2018-01-07T00:23:54.432Z,95926.14
2018-01-07T00:26:23.274Z,95928.06
2018-01-07T00:28:51.857Z,95924.64
2018-01-07T00:31:20.318Z,95926.16
2018-01-07T00:33:49.411Z,95940.27
2018-01-07T00:36:17.074Z,95931.86
2018-01-07T00:38:46.574Z,95932.53
2018-01-07T00:41:14.208Z,95941.06
2018-01-07T00:43:56.576Z,95940.58
2018-01-07T00:46:24.470Z,95943.17
2018-01-07T00:48:52.098Z,95948.69
2018-01-07T00:51:19.704Z,95946.17
2018-01-07T00:53:47.314Z,95949.41
2018-01-07T00:56:15.670Z,95941.59
2018-01-07T00:58:43.395Z,95937.66
2018-01-07T01:01:11.122Z,95942.51
2018-01-07T01:03:39.048Z,95942.18
2018-01-07T01:06:06.837Z,95941.57
2018-01-07T01:08:34.642Z,95942.77
2018-01-07T01:11:02.216Z,95946.84
2018-01-07T01:13:29.855Z,95945.69
2018-01-07T01:15:58.201Z,95953.50
2018-01-07T01:18:25.894Z,95957.38
2018-01-07T01:20:53.703Z,95965.73
2018-01-07T01:23:21.306Z,95965.91
2018-01-07T01:25:50.073Z,95973.24
2018-01-07T01:28:18.180Z,95980.77
2018-01-07T01:30:45.824Z,95979.63
2018-01-07T01:33:15.075Z,95986.75
2018-01-07T01:35:43.073Z,95988.34
2018-01-07T01:38:10.704Z,95980.14
2018-01-07T01:40:38.313Z,95983.58
2018-01-07T01:43:06.102Z,95974.80
2018-01-07T01:45:33.728Z,95982.61
2018-01-07T01:48:01.356Z,95979.65
2018-01-07T01:50:28.981Z,95992.27
2018-01-07T01:52:56.621Z,95989.16
2018-01-07T01:55:24.239Z,95993.20
2018-01-07T01:57:52.345Z,95998.13
2018-01-07T02:00:20.093Z,95997.63
2018-01-07T02:02:47.726Z,96005.39
2018-01-07T02:05:16.038Z,96008.13
2018-01-07T02:07:43.618Z,96011.91
2018-01-07T02:10:11.265Z,96015.22
2018-01-07T02:12:38.889Z,96015.70
2018-01-07T02:15:06.480Z,96011.02
2018-01-07T02:17:34.332Z,96009.13
2018-01-07T02:20:01.916Z,96005.26
2018-01-07T02:22:29.762Z,96011.28
2018-01-07T02:24:57.553Z,96012.26
2018-01-07T02:27:25.358Z,96005.63
2018-01-07T02:29:53.051Z,96005.19
2018-01-07T02:32:21.065Z,95999.00
2018-01-07T02:34:49.263Z,95997.94
2018-01-07T02:37:16.864Z,96015.44
2018-01-07T02:39:44.552Z,96011.09
2018-01-07T02:42:12.168Z,96005.19
2018-01-07T02:44:40.619Z,96009.55
2018-01-07T02:47:08.258Z,96014.05
2018-01-07T02:49:35.836Z,96012.72
2018-01-07T02:52:04.431Z,96017.02
2018-01-07T02:54:32.094Z,96003.56
2018-01-07T02:56:59.769Z,96025.42
2018-01-07T02:59:27.405Z,96030.51
2018-01-07T03:01:55.168Z,96031.31
2018-01-07T03:04:22.971Z,96026.22
2018-01-07T03:06:50.619Z,96026.34
2018-01-07T03:09:18.271Z,96027.77
2018-01-07T03:11:45.907Z,96030.75
2018-01-07T03:14:13.558Z,96012.89
2018-01-07T03:16:41.218Z,96024.38
2018-01-07T03:19:08.868Z,96016.09
2018-01-07T03:21:36.454Z,96015.38
2018-01-07T03:24:04.248Z,96026.23
2018-01-07T03:26:31.878Z,96018.86
2018-01-07T03:28:59.744Z,96022.36
2018-01-07T03:31:27.488Z,96021.81
2018-01-07T03:33:55.152Z,96026.22
2018-01-07T03:36:22.682Z,96025.17
2018-01-07T03:38:50.585Z,96039.31
2018-01-07T03:41:18.183Z,96026.85
2018-01-07T03:43:48.187Z,96032.77
2018-01-07T03:48:51.296Z,96032.49
2018-01-07T03:51:18.966Z,96020.90
2018-01-07T03:53:46.617Z,96025.35
2018-01-07T03:56:14.227Z,96024.48
2018-01-07T03:58:41.854Z,96029.42
2018-01-07T04:01:10.033Z,96030.05
2018-01-07T04:03:37.698Z,96031.00
2018-01-07T04:06:05.386Z,96026.23
2018-01-07T04:08:33.059Z,96029.30
2018-01-07T04:11:00.694Z,96030.87
2018-01-07T04:13:28.277Z,96040.23
2018-01-07T04:15:56.914Z,96037.98
2018-01-07T04:18:24.785Z,96020.52
2018-01-07T04:20:52.437Z,96036.47
2018-01-07T04:23:20.196Z,96034.91
2018-01-07T04:25:47.817Z,96042.09
2018-01-07T04:28:15.427Z,96045.96
2018-01-07T04:30:43.298Z,96058.09
2018-01-07T04:33:10.874Z,96055.02
2018-01-07T04:35:39.128Z,96053.55
2018-01-07T04:38:06.851Z,96064.98
2018-01-07T04:40:34.418Z,96058.60
2018-01-07T04:43:02.306Z,96066.20
2018-01-07T04:45:30.108Z,96076.73
2018-01-07T04:47:57.752Z,96072.08
2018-01-07T04:50:25.349Z,96080.45
2018-01-07T04:52:52.932Z,96089.59
2018-01-07T04:55:20.675Z,96087.11
2018-01-07T04:57:48.346Z,96085.06
2018-01-07T05:00:16.029Z,96087.56
2018-01-07T05:02:43.963Z,96091.73
2018-01-07T05:05:11.658Z,96093.25
2018-01-07T05:07:39.555Z,96100.09
2018-01-07T05:10:08.056Z,96108.05
2018-01-07T05:12:35.844Z,96112.54
2018-01-07T05:15:03.481Z,96116.59
2018-01-07T05:17:34.164Z,96119.38
2018-01-07T05:20:03.898Z,96119.23
2018-01-07T05:22:35.113Z,96126.14
2018-01-07T05:25:04.283Z,96130.00
2018-01-07T05:27:32.084Z,96129.16
2018-01-07T05:30:00.426Z,96136.21
2018-01-07T05:32:31.268Z,96121.87
2018-01-07T05:34:59.136Z,96148.22
2018-01-07T05:37:27.200Z,96144.19
2018-01-07T05:39:54.812Z,96150.05
2018-01-07T05:42:22.488Z,96136.24
2018-01-07T05:44:50.056Z,96154.23
2018-01-07T05:47:17.683Z,96154.13
2018-01-07T05:49:45.893Z,96161.54
2018-01-07T05:52:13.651Z,96166.03
2018-01-07T05:54:41.580Z,96160.45
2018-01-07T05:57:10.113Z,96156.62
2018-01-07T05:59:37.879Z,96153.82
2018-01-07T06:02:05.458Z,96155.27
2018-01-07T06:04:33.065Z,96164.20
2018-01-07T06:07:00.729Z,96165.44
2018-01-07T06:09:28.301Z,96175.81
2018-01-07T06:11:55.970Z,96176.09
2018-01-07T06:14:24.577Z,96168.23
2018-01-07T06:16:52.264Z,96181.16
2018-01-07T06:19:19.928Z,96170.28
2018-01-07T06:21:47.714Z,96175.38
2018-01-07T06:24:15.835Z,96179.00
2018-01-07T06:26:43.568Z,96192.73
2018-01-07T06:29:11.523Z,96189.90
2018-01-07T06:31:39.149Z,96189.23
2018-01-07T06:34:06.758Z,96195.27
2018-01-07T06:36:34.490Z,96197.02
2018-01-07T06:39:02.148Z,96202.48
2018-01-07T06:41:29.777Z,96207.05
2018-01-07T06:43:57.361Z,96212.34
2018-01-07T06:46:24.985Z,96221.99
2018-01-07T06:48:52.661Z,96221.03
2018-01-07T06:51:20.290Z,96219.26
2018-01-07T06:53:48.007Z,96214.22
2018-01-07T06:56:15.684Z,96225.25
2018-01-07T06:58:43.335Z,96231.62
2018-01-07T07:01:11.016Z,96228.87
2018-01-07T07:03:38.673Z,96223.48
2018-01-07T07:06:06.477Z,96223.20
2018-01-07T07:08:34.302Z,96226.48
2018-01-07T07:11:01.965Z,96226.89
2018-01-07T07:13:30.542Z,96231.11
2018-01-07T07:15:58.145Z,96230.27
2018-01-07T07:18:25.866Z,96243.97
2018-01-07T07:21:11.243Z,96252.86
2018-01-07T07:23:38.912Z,96253.43
2018-01-07T07:26:06.551Z,96250.59
2018-01-07T07:28:34.312Z,96252.53
2018-01-07T07:31:01.975Z,96256.94
2018-01-07T07:33:34.671Z,96265.02
2018-01-07T07:36:02.989Z,96269.71
2018-01-07T07:38:30.803Z,96270.20
2018-01-07T07:40:58.651Z,96280.14
2018-01-07T07:43:28.082Z,96279.66
2018-01-07T07:45:55.751Z,96280.75
2018-01-07T07:48:23.624Z,96278.98
2018-01-07T07:50:51.264Z,96277.61
2018-01-07T07:53:18.925Z,96270.09
2018-01-07T07:55:46.707Z,96269.64
2018-01-07T07:58:14.324Z,96285.42
2018-01-07T08:00:41.983Z,96276.28
2018-01-07T08:03:09.570Z,96276.52
2018-01-07T08:05:37.172Z,96273.63
2018-01-07T08:08:04.868Z,96279.48
2018-01-07T08:10:32.866Z,96284.69
2018-01-07T08:13:00.558Z,96283.24
2018-01-07T08:15:29.065Z,96287.41
2018-01-07T08:17:56.789Z,96289.87
2018-01-07T08:20:24.509Z,96293.31
2018-01-07T08:22:52.490Z,96294.16
2018-01-07T08:25:20.231Z,96290.33
2018-01-07T08:27:47.862Z,96290.55
2018-01-07T08:30:15.539Z,96293.77
2018-01-07T08:32:43.447Z,96291.05
2018-01-07T08:35:11.137Z,96295.59
2018-01-07T08:37:38.801Z,96298.06
2018-01-07T08:40:06.426Z,96296.91
2018-01-07T08:42:34.229Z,96299.25
2018-01-07T08:45:02.103Z,96298.06
2018-01-07T08:47:29.901Z,96298.56
2018-01-07T08:49:57.661Z,96299.92
2018-01-07T08:52:25.278Z,96304.34
2018-01-07T08:54:52.842Z,96302.82
2018-01-07T08:57:20.655Z,96307.16
2018-01-07T08:59:48.353Z,96302.83
2018-01-07T09:02:16.096Z,96305.75
2018-01-07T09:04:43.716Z,96297.08
2018-01-07T09:07:11.450Z,96296.59
2018-01-07T09:09:39.745Z,96291.59
2018-01-07T09:12:08.484Z,96286.27
2018-01-07T09:14:36.037Z,96270.17
2018-01-07T09:17:03.627Z,96287.48
2018-01-07T09:19:31.293Z,96279.52
2018-01-07T09:21:58.912Z,96285.73
2018-01-07T09:24:26.629Z,96282.88
2018-01-07T09:26:55.359Z,96282.55
2018-01-07T09:29:25.025Z,96289.45
2018-01-07T09:31:52.729Z,96276.41
2018-01-07T09:34:20.538Z,96277.02
2018-01-07T09:36:48.128Z,96270.42
2018-01-07T09:39:15.932Z,96278.89
2018-01-07T09:41:43.499Z,96280.72
2018-01-07T09:44:11.083Z,96287.09
2018-01-07T09:46:38.686Z,96271.45
2018-01-07T09:49:06.348Z,96276.66
2018-01-07T09:51:33.971Z,96286.88
2018-01-07T09:54:02.101Z,96291.88
2018-01-07T09:56:29.665Z,96289.09
2018-01-07T09:58:57.242Z,96283.41
2018-01-07T10:01:24.858Z,96293.39
2018-01-07T10:03:52.494Z,96290.70
2018-01-07T10:06:20.676Z,96285.36
2018-01-07T10:08:48.282Z,96273.27
2018-01-07T10:11:16.181Z,96277.87
2018-01-07T10:13:44.231Z,96273.60
2018-01-07T10:16:11.884Z,96269.77
2018-01-07T10:18:40.577Z,96275.63
2018-01-07T10:21:09.176Z,96278.66
2018-01-07T10:26:30.605Z,96272.23
2018-01-07T10:28:58.693Z,96273.21
2018-01-07T10:31:26.376Z,96268.75
2018-01-07T10:33:54.184Z,96269.20
2018-01-07T10:36:21.797Z,96265.99
2018-01-07T10:38:49.354Z,96273.08
2018-01-07T10:41:17.909Z,96268.25
2018-01-07T10:43:46.627Z,96267.83
2018-01-07T10:46:14.319Z,96271.55
2018-01-07T10:48:42.794Z,96269.80
2018-01-07T10:51:10.458Z,96272.22
2018-01-07T10:56:32.327Z,96263.66
2018-01-07T10:59:01.174Z,96243.15
2018-01-07T11:01:34.256Z,96253.63
2018-01-07T11:04:01.867Z,96261.72
2018-01-07T11:06:30.323Z,96266.41
2018-01-07T11:08:59.449Z,96256.99
2018-01-07T11:11:27.168Z,96264.50
2018-01-07T11:13:56.193Z,96257.48
2018-01-07T11:16:23.875Z,96247.30
2018-01-07T11:18:51.531Z,96233.05
2018-01-07T11:21:19.331Z,96247.09
2018-01-07T11:23:47.079Z,96249.78
2018-01-07T11:26:20.825Z,96238.97
2018-01-07T11:28:48.583Z,96246.57
2018-01-07T11:31:16.295Z,96241.10
2018-01-07T11:33:45.491Z,96247.68
2018-01-07T11:36:13.109Z,96234.67
2018-01-07T11:38:40.692Z,96246.19
2018-01-07T11:41:30.044Z,96239.03
2018-01-07T11:43:57.965Z,96236.13
2018-01-07T11:46:27.712Z,96241.38
2018-01-07T11:48:55.531Z,96229.92
2018-01-07T11:51:23.277Z,96231.43
2018-01-07T11:53:51.315Z,96229.98
2018-01-07T11:56:19.088Z,96224.12
2018-01-07T11:58:47.557Z,96225.47
2018-01-07T12:01:15.451Z,96225.08
2018-01-07T12:03:43.765Z,96213.56
2018-01-07T12:06:11.467Z,96215.33
2018-01-07T12:08:39.096Z,96201.70
2018-01-07T12:11:06.749Z,96214.13
2018-01-07T12:13:36.467Z,96212.80
2018-01-07T12:16:05.054Z,96213.30
2018-01-07T12:18:35.364Z,96219.72
2018-01-07T12:21:03.322Z,96215.05
2018-01-07T12:23:47.321Z,96216.06
2018-01-07T12:26:15.099Z,96208.44
2018-01-07T12:28:42.704Z,96211.84
2018-01-07T12:31:11.641Z,96209.84
2018-01-07T12:33:39.419Z,96202.45
2018-01-07T12:36:07.020Z,96208.55
2018-01-07T12:38:34.627Z,96215.16
2018-01-07T12:41:02.643Z,96215.80
2018-01-07T12:43:31.560Z,96218.04
2018-01-07T12:45:59.607Z,96213.11
2018-01-07T12:48:28.029Z,96211.60
2018-01-07T12:50:55.587Z,96213.46
2018-01-07T12:53:23.266Z,96217.80
2018-01-07T12:55:51.145Z,96223.27
2018-01-07T12:58:18.742Z,96218.83
2018-01-07T13:00:46.378Z,96219.48
2018-01-07T13:03:14.002Z,96226.32
2018-01-07T13:05:41.769Z,96231.21
2018-01-07T13:08:09.433Z,96227.96
2018-01-07T13:10:37.174Z,96230.05
2018-01-07T13:13:09.079Z,96229.88
2018-01-07T13:15:43.115Z,96231.10
2018-01-07T13:18:13.847Z,96225.06
2018-01-07T13:20:41.733Z,96219.91
2018-01-07T13:23:09.698Z,96230.36
2018-01-07T13:25:42.222Z,96225.88
2018-01-07T13:28:10.063Z,96226.76
2018-01-07T13:30:37.961Z,96231.84
2018-01-07T13:33:06.291Z,96219.64
2018-01-07T13:35:34.780Z,96230.21
2018-01-07T13:38:03.691Z,96232.75
2018-01-07T13:40:31.361Z,96234.42
2018-01-07T13:42:59.017Z,96229.89
2018-01-07T13:45:27.104Z,96236.78
2018-01-07T13:47:54.747Z,96241.58
2018-01-07T13:50:22.597Z,96244.37
2018-01-07T13:52:51.785Z,96243.41
2018-01-07T13:55:19.507Z,96243.64
2018-01-07T13:57:47.075Z,96246.25
2018-01-07T14:00:14.918Z,96240.30
2018-01-07T14:02:42.581Z,96244.98
2018-01-07T14:05:10.272Z,96245.75
2018-01-07T14:07:39.682Z,96245.50
2018-01-07T14:10:07.277Z,96243.48
2018-01-07T14:12:35.113Z,96249.61
2018-01-07T14:15:03.061Z,96246.19
2018-01-07T14:17:30.698Z,96246.41
2018-01-07T14:19:58.430Z,96248.23
2018-01-07T14:22:40.720Z,96251.91
2018-01-07T14:25:08.401Z,96258.17
2018-01-07T14:27:36.162Z,96256.55
2018-01-07T14:30:08.000Z,96256.88
2018-01-07T14:32:35.718Z,96256.33
2018-01-07T14:35:03.257Z,96263.70
2018-01-07T14:37:30.897Z,96261.18
2018-01-07T14:39:58.513Z,96259.88
2018-01-07T14:42:27.219Z,96255.35
2018-01-07T14:44:55.314Z,96252.20
2018-01-07T14:47:22.954Z,96257.66
2018-01-07T14:49:50.644Z,96261.70
2018-01-07T14:52:18.329Z,96271.56
2018-01-07T14:54:50.830Z,96265.66
2018-01-07T14:57:19.447Z,96261.63
2018-01-07T14:59:47.024Z,96256.84
2018-01-07T15:02:14.616Z,96259.97
2018-01-07T15:04:43.038Z,96266.56
2018-01-07T15:07:10.645Z,96266.49
2018-01-07T15:09:39.518Z,96268.24
2018-01-07T15:12:07.079Z,96253.64
2018-01-07T15:14:35.026Z,96267.59
2018-01-07T15:17:02.619Z,96272.45
2018-01-07T15:19:31.235Z,96271.77
2018-01-07T15:21:58.865Z,96276.19
2018-01-07T15:24:26.854Z,96278.81
2018-01-07T15:26:54.840Z,96284.44
2018-01-07T15:29:22.477Z,96286.52
2018-01-07T15:31:50.074Z,96304.34
2018-01-07T15:34:17.796Z,96298.52
2018-01-07T15:36:45.520Z,96303.37
2018-01-07T15:39:13.226Z,96313.70
2018-01-07T15:41:40.845Z,96306.11
2018-01-07T15:44:09.370Z,96320.83
2018-01-07T15:46:37.585Z,96317.03
2018-01-07T15:49:05.319Z,96327.05
2018-01-07T15:51:37.933Z,96333.78
2018-01-07T15:54:07.339Z,96329.78
2018-01-07T15:56:35.130Z,96329.97
2018-01-07T15:59:02.810Z,96329.66
2018-01-07T16:01:30.719Z,96335.30
2018-01-07T16:03:58.583Z,96339.88
2018-01-07T16:06:26.276Z,96340.84
2018-01-07T16:08:53.908Z,96334.22
2018-01-07T16:11:21.987Z,96339.28
2018-01-07T16:13:49.762Z,96338.20
2018-01-07T16:16:17.479Z,96337.30
2018-01-07T16:18:45.412Z,96339.50
2018-01-07T16:21:21.306Z,96329.86
2018-01-07T16:26:28.631Z,96326.10
2018-01-07T16:28:56.858Z,96333.65
2018-01-07T16:31:24.664Z,96340.84
2018-01-07T16:33:52.923Z,96350.17
2018-01-07T16:36:20.685Z,96344.73
2018-01-07T16:38:48.434Z,96357.62
2018-01-07T16:41:16.019Z,96362.38
2018-01-07T16:43:43.650Z,96364.80
2018-01-07T16:46:12.844Z,96364.92
2018-01-07T16:48:40.402Z,96364.85
2018-01-07T16:51:08.045Z,96370.01
2018-01-07T16:53:35.961Z,96372.94
2018-01-07T16:56:12.059Z,96374.70
2018-01-07T16:58:40.381Z,96378.80
2018-01-07T17:01:08.281Z,96386.67
2018-01-07T17:03:36.166Z,96388.20
2018-01-07T17:06:15.322Z,96387.31
2018-01-07T17:08:43.149Z,96393.69
2018-01-07T17:11:47.871Z,96395.80
2018-01-07T17:14:16.018Z,96397.28
2018-01-07T17:16:44.652Z,96389.06
2018-01-07T17:19:12.471Z,96381.31
2018-01-07T17:21:40.173Z,96374.80
2018-01-07T17:24:09.231Z,96387.20
2018-01-07T17:26:42.784Z,96400.34
2018-01-07T17:29:10.464Z,96403.48
2018-01-07T17:31:40.127Z,96408.20
2018-01-07T17:34:08.290Z,96412.39
2018-01-07T17:36:36.866Z,96410.53
2018-01-07T17:39:06.432Z,96419.03
2018-01-07T17:41:36.578Z,96420.05
2018-01-07T17:44:05.556Z,96424.96
2018-01-07T17:46:33.215Z,96423.63
2018-01-07T17:49:00.912Z,96430.44
2018-01-07T17:51:31.551Z,96438.50
2018-01-07T17:53:59.973Z,96436.09
2018-01-07T17:56:28.184Z,96444.59
2018-01-07T17:58:56.189Z,96448.09
2018-01-07T18:01:23.921Z,96447.12
2018-01-07T18:03:52.091Z,96440.11
2018-01-07T18:06:19.742Z,96443.97
2018-01-07T18:08:48.348Z,96447.67
2018-01-07T18:11:16.652Z,96450.64
2018-01-07T18:13:45.824Z,96457.30
2018-01-07T18:16:13.443Z,96460.53
2018-01-07T18:18:41.755Z,96456.76
2018-01-07T18:21:11.881Z,96463.48
2018-01-07T18:23:39.852Z,96463.06
2018-01-07T18:26:07.645Z,96461.98
2018-01-07T18:28:35.648Z,96478.98
2018-01-07T18:31:03.320Z,96488.77
2018-01-07T18:33:30.995Z,96492.41
2018-01-07T18:36:00.099Z,96495.95
2018-01-07T18:38:28.700Z,96495.83
2018-01-07T18:40:59.113Z,96498.05
2018-01-07T18:43:26.959Z,96497.67
2018-01-07T18:45:56.648Z,96496.42
2018-01-07T18:48:25.154Z,96495.67
2018-01-07T18:50:53.630Z,96490.27
2018-01-07T18:53:21.838Z,96490.03
2018-01-07T18:55:49.593Z,96492.55
2018-01-07T18:58:17.329Z,96482.58
2018-01-07T19:00:44.969Z,96473.73
2018-01-07T19:03:12.643Z,96521.99
2018-01-07T19:05:42.498Z,96519.58
2018-01-07T19:08:10.157Z,96524.90
2018-01-07T19:10:40.774Z,96536.59
2018-01-07T19:13:09.936Z,96536.31
2018-01-07T19:15:38.929Z,96547.29
2018-01-07T19:18:10.781Z,96539.84
2018-01-07T19:20:40.036Z,96536.94
2018-01-07T19:23:07.688Z,96538.03
2018-01-07T19:25:35.382Z,96535.31
2018-01-07T19:28:03.114Z,96532.86
2018-01-07T19:30:30.797Z,96534.64
2018-01-07T19:32:58.758Z,96527.31
2018-01-07T19:35:26.874Z,96528.81
2018-01-07T19:37:55.244Z,96524.33
2018-01-07T19:40:23.071Z,96535.98
2018-01-07T19:42:50.801Z,96532.98
2018-01-07T19:45:20.916Z,96518.81
2018-01-07T19:47:49.933Z,96526.95
2018-01-07T19:50:17.877Z,96527.63
2018-01-07T19:52:50.169Z,96524.44
2018-01-07T19:55:17.833Z,96523.97
2018-01-07T19:57:45.470Z,96526.47
2018-01-07T20:00:13.610Z,96535.09
2018-01-07T20:02:41.424Z,96540.87
2018-01-07T20:05:19.849Z,96547.18
2018-01-07T20:07:48.431Z,96546.10
2018-01-07T20:10:16.169Z,96547.91
2018-01-07T20:12:51.320Z,96534.03
2018-01-07T20:15:19.965Z,96547.35
2018-01-07T20:17:48.518Z,96558.13
2018-01-07T20:20:17.450Z,96560.73
2018-01-07T20:22:45.141Z,96554.91
2018-01-07T20:25:21.280Z,96561.16
2018-01-07T20:31:31.132Z,96557.98
2018-01-07T20:34:04.740Z,96555.70
2018-01-07T20:54:18.227Z,96570.61
2018-01-07T20:56:46.007Z,96574.92
2018-01-07T20:59:13.982Z,96575.20
2018-01-07T21:01:41.638Z,96570.97
2018-01-07T21:04:09.269Z,96579.80
2018-01-07T21:06:38.941Z,96589.08
2018-01-07T21:09:06.698Z,96598.22
2018-01-07T21:11:36.796Z,96598.92
2018-01-07T21:14:04.414Z,96603.99
2018-01-07T21:16:32.227Z,96603.66
2018-01-07T21:18:59.786Z,96607.15
2018-01-07T21:21:27.404Z,96621.49
2018-01-07T21:23:55.577Z,96589.70
2018-01-07T21:26:23.134Z,96615.20
2018-01-07T21:28:59.631Z,96610.25
2018-01-07T21:31:27.329Z,96604.58
2018-01-07T21:33:55.815Z,96602.20
2018-01-07T21:36:23.589Z,96597.52
2018-01-07T21:38:51.628Z,96600.41
2018-01-07T21:41:20.452Z,96605.81
2018-01-07T21:43:49.314Z,96603.09
2018-01-07T21:46:17.869Z,96605.00
2018-01-07T21:48:47.017Z,96615.38
2018-01-07T21:51:14.698Z,96609.95
2018-01-07T21:53:43.130Z,96603.54
2018-01-07T21:56:10.838Z,96601.69
2018-01-07T21:58:39.223Z,96595.09
2018-01-07T22:01:18.779Z,96611.44
2018-01-07T22:03:58.247Z,96616.80
2018-01-07T22:06:38.374Z,96615.45
2018-01-07T22:09:06.861Z,96608.43
2018-01-07T22:11:36.320Z,96618.55
2018-01-07T22:19:59.545Z,96609.03
2018-01-07T22:23:08.291Z,96614.84
2018-01-07T22:39:39.808Z,96604.05
2018-01-07T22:42:07.461Z,96613.22
2018-01-07T22:44:45.166Z,96465.18
2018-01-07T22:47:13.873Z,96608.50
2018-01-07T22:49:41.598Z,96611.45
2018-01-07T22:52:13.843Z,96609.02
2018-01-07T22:54:41.760Z,96586.97
2018-01-07T22:57:09.408Z,96609.53
2018-01-07T22:59:37.196Z,96607.25
2018-01-07T23:02:04.953Z,96606.55
2018-01-07T23:04:35.584Z,96619.01
2018-01-07T23:07:05.730Z,96548.24
2018-01-07T23:16:36.522Z,96613.87
2018-01-07T23:19:06.111Z,96622.13
2018-01-07T23:29:11.423Z,96609.52
2018-01-07T23:31:50.541Z,96614.34
2018-01-07T23:34:19.214Z,96604.56
2018-01-07T23:37:15.990Z,96602.94
2018-01-07T23:39:46.819Z,96595.61
2018-01-07T23:42:14.979Z,96613.27
2018-01-07T23:44:43.558Z,96624.63
2018-01-07T23:47:11.579Z,96626.34
2018-01-07T23:49:41.059Z,96635.07
2018-01-07T23:52:08.744Z,96630.37
2018-01-07T23:54:36.340Z,96640.44
2018-01-07T23:57:03.977Z,96645.11
2018-01-07T23:59:33.457Z,96659.91
